createdAt,value
2022-07-31T00:02:07.839Z,43.40
2022-07-31T00:05:32.001Z,43.60
2022-07-31T00:09:02.296Z,43.80
2022-07-31T00:12:26.046Z,43.90
2022-07-31T00:15:51.006Z,44.00
2022-07-31T00:19:14.491Z,44.20
2022-07-31T00:22:38.057Z,44.20
2022-07-31T00:26:01.558Z,44.30
2022-07-31T00:29:25.206Z,44.40
2022-07-31T00:32:52.017Z,44.50
2022-07-31T00:36:15.645Z,45.50
2022-07-31T00:39:39.191Z,44.90
2022-07-31T00:43:02.690Z,45.00
2022-07-31T00:46:26.271Z,45.10
2022-07-31T00:49:51.868Z,45.30
2022-07-31T00:53:15.454Z,45.40
2022-07-31T00:56:39.074Z,45.40
2022-07-31T01:00:02.730Z,45.50
2022-07-31T01:03:26.397Z,45.60
2022-07-31T01:06:51.277Z,45.60
2022-07-31T01:10:24.594Z,45.70
2022-07-31T01:13:55.929Z,45.90
2022-07-31T01:17:23.081Z,45.30
2022-07-31T01:20:51.677Z,45.90
2022-07-31T01:24:44.749Z,46.00
2022-07-31T01:29:07.259Z,46.30
2022-07-31T01:32:38.148Z,46.40
2022-07-31T01:36:11.375Z,46.00
2022-07-31T01:39:37.677Z,45.90
2022-07-31T01:43:08.941Z,46.00
2022-07-31T01:46:41.437Z,46.20
2022-07-31T01:50:09.484Z,46.90
2022-07-31T01:53:56.984Z,46.30
2022-07-31T01:57:23.467Z,46.50
2022-07-31T02:01:14.822Z,46.10
2022-07-31T02:04:41.316Z,46.80
2022-07-31T02:08:07.592Z,46.80
2022-07-31T02:11:33.151Z,46.80
2022-07-31T02:15:14.258Z,46.40
2022-07-31T02:18:42.859Z,47.10
2022-07-31T02:22:20.097Z,47.30
2022-07-31T02:25:49.345Z,46.70
2022-07-31T02:29:20.068Z,46.80
2022-07-31T02:32:48.637Z,47.50
2022-07-31T02:36:15.279Z,47.70
2022-07-31T02:39:41.286Z,47.70
2022-07-31T02:43:05.844Z,47.80
2022-07-31T02:46:32.307Z,47.90
2022-07-31T02:49:57.951Z,47.60
2022-07-31T02:53:22.368Z,48.00
2022-07-31T02:56:51.124Z,47.50
2022-07-31T03:00:23.705Z,48.80
2022-07-31T03:03:50.173Z,48.40
2022-07-31T03:07:13.812Z,48.30
2022-07-31T03:10:38.049Z,48.30
2022-07-31T03:14:04.660Z,48.40
2022-07-31T03:17:40.651Z,48.60
2022-07-31T03:21:06.895Z,49.20
2022-07-31T03:24:30.703Z,48.50
2022-07-31T03:27:56.470Z,48.60
2022-07-31T03:31:22.419Z,48.70
2022-07-31T03:34:45.932Z,48.80
2022-07-31T03:38:39.077Z,48.80
2022-07-31T03:41:57.281Z,48.90
2022-07-31T03:45:22.343Z,49.00
2022-07-31T03:48:51.908Z,49.10
2022-07-31T03:52:17.051Z,49.30
2022-07-31T03:55:44.182Z,49.30
2022-07-31T03:59:07.782Z,49.40
2022-07-31T04:02:32.843Z,49.40
2022-07-31T04:06:19.141Z,49.50
2022-07-31T04:09:42.838Z,49.70
2022-07-31T04:13:08.423Z,49.70
2022-07-31T04:16:31.951Z,49.80
2022-07-31T04:19:55.459Z,49.80
2022-07-31T04:23:20.376Z,50.10
2022-07-31T04:27:21.055Z,50.30
2022-07-31T04:30:44.698Z,50.60
2022-07-31T04:34:08.508Z,50.90
2022-07-31T04:37:35.337Z,51.00
2022-07-31T04:41:01.067Z,51.70
2022-07-31T04:44:25.030Z,51.40
2022-07-31T04:47:51.546Z,51.60
2022-07-31T04:51:19.647Z,51.90
2022-07-31T04:54:43.440Z,52.20
2022-07-31T04:58:10.177Z,52.50
2022-07-31T05:01:35.179Z,52.90
2022-07-31T05:04:59.161Z,53.20
2022-07-31T05:08:35.032Z,53.00
2022-07-31T05:11:58.582Z,51.70
2022-07-31T05:15:23.442Z,51.20
2022-07-31T05:18:47.911Z,51.50
2022-07-31T05:22:17.567Z,51.70
2022-07-31T05:26:06.224Z,51.50
2022-07-31T05:29:30.321Z,51.10
2022-07-31T05:32:55.189Z,50.00
2022-07-31T05:36:20.259Z,48.80
2022-07-31T05:39:43.927Z,48.20
2022-07-31T05:43:26.525Z,47.80
2022-07-31T05:47:16.808Z,47.40
2022-07-31T05:50:43.254Z,47.20
2022-07-31T05:54:07.114Z,47.20
2022-07-31T05:57:49.062Z,47.40
2022-07-31T06:01:12.745Z,47.60
2022-07-31T06:04:38.670Z,47.90
2022-07-31T06:08:03.973Z,48.20
2022-07-31T06:11:32.932Z,48.50
2022-07-31T06:14:56.440Z,48.60
2022-07-31T06:18:33.872Z,48.80
2022-07-31T06:21:57.402Z,49.00
2022-07-31T06:25:22.431Z,49.20
2022-07-31T06:28:48.762Z,49.30
2022-07-31T06:32:13.706Z,49.30
2022-07-31T06:35:37.326Z,49.50
2022-07-31T06:39:25.176Z,49.60
2022-07-31T06:43:29.935Z,49.80
2022-07-31T06:47:16.143Z,50.10
2022-07-31T06:51:29.260Z,50.30
2022-07-31T06:54:47.967Z,50.50
2022-07-31T06:58:11.611Z,50.50
2022-07-31T07:01:36.662Z,51.10
2022-07-31T07:05:05.875Z,50.50
2022-07-31T07:08:31.360Z,50.40
2022-07-31T07:11:55.494Z,50.60
2022-07-31T07:15:19.677Z,50.70
2022-07-31T07:18:45.152Z,50.90
2022-07-31T07:22:09.072Z,51.20
2022-07-31T07:25:33.248Z,51.90
2022-07-31T07:28:57.830Z,51.90
2022-07-31T07:32:21.356Z,51.70
2022-07-31T07:35:46.566Z,51.50
2022-07-31T07:39:13.682Z,51.50
2022-07-31T07:42:38.715Z,51.60
2022-07-31T07:46:02.218Z,51.80
2022-07-31T07:49:26.567Z,51.20
2022-07-31T07:53:14.594Z,50.50
2022-07-31T07:57:10.746Z,49.60
2022-07-31T08:00:54.653Z,48.80
2022-07-31T08:04:18.438Z,48.30
2022-07-31T08:07:43.901Z,48.00
2022-07-31T08:11:38.983Z,47.70
2022-07-31T08:15:09.783Z,47.30
2022-07-31T08:18:52.925Z,47.80
2022-07-31T08:22:16.678Z,47.10
2022-07-31T08:25:40.162Z,47.30
2022-07-31T08:29:07.797Z,47.40
2022-07-31T08:32:31.670Z,47.50
2022-07-31T08:36:04.769Z,48.10
2022-07-31T08:39:28.341Z,48.90
2022-07-31T08:43:07.305Z,49.60
2022-07-31T08:46:46.142Z,50.50
2022-07-31T08:50:13.876Z,50.20
2022-07-31T08:53:38.432Z,50.10
2022-07-31T08:57:12.782Z,50.30
2022-07-31T09:00:37.565Z,50.20
2022-07-31T09:04:02.727Z,49.00
2022-07-31T09:07:26.247Z,47.50
2022-07-31T09:10:50.493Z,47.60
2022-07-31T09:14:16.860Z,45.50
2022-07-31T09:17:52.527Z,44.30
2022-07-31T09:21:18.876Z,43.00
2022-07-31T09:24:42.426Z,42.20
2022-07-31T09:28:08.359Z,41.80
2022-07-31T09:31:34.490Z,40.60
2022-07-31T09:35:16.406Z,39.50
2022-07-31T09:38:43.888Z,39.10
2022-07-31T09:42:45.539Z,38.00
2022-07-31T09:46:16.368Z,36.50
2022-07-31T09:49:39.924Z,36.80
2022-07-31T09:53:03.803Z,36.00
2022-07-31T09:56:35.885Z,35.10
2022-07-31T09:59:59.685Z,34.80
2022-07-31T10:03:25.678Z,34.50
2022-07-31T10:06:51.757Z,34.00
2022-07-31T10:10:17.974Z,33.30
2022-07-31T10:14:01.873Z,32.90
2022-07-31T10:17:35.865Z,32.10
2022-07-31T10:21:18.936Z,31.90
2022-07-31T10:25:02.035Z,31.60
2022-07-31T10:28:29.572Z,30.70
2022-07-31T10:31:55.014Z,30.00
2022-07-31T10:35:20.671Z,29.10
2022-07-31T10:39:04.740Z,29.10
2022-07-31T10:42:56.195Z,29.00
2022-07-31T10:46:29.774Z,30.00
2022-07-31T10:50:26.915Z,29.50
2022-07-31T10:54:11.555Z,30.10
2022-07-31T10:58:12.718Z,29.80
2022-07-31T11:01:52.975Z,29.10
2022-07-31T11:06:01.024Z,28.70
2022-07-31T11:09:50.406Z,28.60
2022-07-31T11:13:36.783Z,29.10
2022-07-31T11:17:15.609Z,29.40
2022-07-31T11:20:48.063Z,30.10
2022-07-31T11:24:20.355Z,30.70
2022-07-31T11:27:43.886Z,30.30
2022-07-31T11:31:09.595Z,30.90
2022-07-31T11:34:44.031Z,31.00
2022-07-31T11:38:07.673Z,30.80
2022-07-31T11:41:41.059Z,30.00
2022-07-31T11:45:12.567Z,30.40
2022-07-31T11:48:45.187Z,30.10
2022-07-31T11:52:31.090Z,29.80
2022-07-31T11:55:59.041Z,29.70
2022-07-31T11:59:45.290Z,29.60
2022-07-31T12:03:10.454Z,29.60
2022-07-31T12:06:36.413Z,30.30
2022-07-31T12:10:03.441Z,31.50
2022-07-31T12:13:30.044Z,32.30
2022-07-31T12:16:55.148Z,31.90
2022-07-31T12:20:34.276Z,31.70
2022-07-31T12:23:59.213Z,31.10
2022-07-31T12:27:22.772Z,31.10
2022-07-31T12:30:47.522Z,30.40
2022-07-31T12:34:13.674Z,30.10
2022-07-31T12:37:51.104Z,30.10
2022-07-31T12:41:14.954Z,30.30
2022-07-31T12:44:48.971Z,30.90
2022-07-31T12:48:12.477Z,31.00
2022-07-31T12:51:46.092Z,30.30
2022-07-31T12:55:10.986Z,29.60
2022-07-31T12:58:34.497Z,29.30
2022-07-31T13:01:58.005Z,29.10
2022-07-31T13:05:22.371Z,29.00
2022-07-31T13:08:47.250Z,29.30
2022-07-31T13:12:11.177Z,29.50
2022-07-31T13:15:34.657Z,29.80
2022-07-31T13:18:58.156Z,30.20
2022-07-31T13:22:21.731Z,30.40
2022-07-31T13:25:46.602Z,30.90
2022-07-31T13:29:10.106Z,31.10
2022-07-31T13:32:33.844Z,31.10
2022-07-31T13:35:57.352Z,30.80
2022-07-31T13:39:20.898Z,30.30
2022-07-31T13:42:45.755Z,29.70
2022-07-31T13:46:09.340Z,29.60
2022-07-31T13:49:33.131Z,29.60
2022-07-31T13:52:57.700Z,30.00
2022-07-31T13:56:41.742Z,30.00
2022-07-31T14:00:08.755Z,29.70
2022-07-31T14:03:32.770Z,29.40
2022-07-31T14:06:58.883Z,29.30
2022-07-31T14:10:24.846Z,29.30
2022-07-31T14:13:48.349Z,29.50
2022-07-31T14:17:13.187Z,29.00
2022-07-31T14:20:37.014Z,28.70
2022-07-31T14:24:00.508Z,28.70
2022-07-31T14:27:24.042Z,28.70
2022-07-31T14:30:49.639Z,28.70
2022-07-31T14:34:14.700Z,28.70
2022-07-31T14:37:39.319Z,28.80
2022-07-31T14:41:03.712Z,29.10
2022-07-31T14:44:28.553Z,29.20
2022-07-31T14:47:55.000Z,29.20
2022-07-31T14:51:20.515Z,29.30
2022-07-31T14:54:43.990Z,29.20
2022-07-31T14:58:07.890Z,29.30
2022-07-31T15:01:31.446Z,29.40
2022-07-31T15:04:55.051Z,29.50
2022-07-31T15:08:19.897Z,29.50
2022-07-31T15:12:00.406Z,29.40
2022-07-31T15:15:24.930Z,29.30
2022-07-31T15:18:52.203Z,29.50
2022-07-31T15:22:17.491Z,29.20
2022-07-31T15:25:42.456Z,29.00
2022-07-31T15:29:06.057Z,28.80
2022-07-31T15:32:29.649Z,29.10
2022-07-31T15:35:53.155Z,29.00
2022-07-31T15:39:16.729Z,29.30
2022-07-31T15:42:43.594Z,29.40
2022-07-31T15:46:08.922Z,28.90
2022-07-31T15:49:44.036Z,29.40
2022-07-31T15:53:08.193Z,29.40
2022-07-31T15:56:31.777Z,29.60
2022-07-31T15:59:56.738Z,29.70
2022-07-31T16:03:20.410Z,29.60
2022-07-31T16:06:49.046Z,29.60
2022-07-31T16:10:18.167Z,29.70
2022-07-31T16:17:07.684Z,29.20
2022-07-31T16:20:31.336Z,29.60
2022-07-31T16:23:54.816Z,29.70
2022-07-31T16:27:18.298Z,29.90
2022-07-31T16:30:42.330Z,30.00
2022-07-31T16:34:07.282Z,29.90
2022-07-31T16:37:50.127Z,29.80
2022-07-31T16:41:14.501Z,29.80
2022-07-31T16:44:39.674Z,29.80
2022-07-31T16:48:03.393Z,29.90
2022-07-31T16:51:28.395Z,30.00
2022-07-31T16:54:51.942Z,30.00
2022-07-31T16:58:15.457Z,30.20
2022-07-31T17:01:58.550Z,30.90
2022-07-31T17:05:22.732Z,30.40
2022-07-31T17:08:47.675Z,30.50
2022-07-31T17:12:11.642Z,30.50
2022-07-31T17:15:35.280Z,30.50
2022-07-31T17:18:59.075Z,30.60
2022-07-31T17:22:29.346Z,30.80
2022-07-31T17:25:56.322Z,31.00
2022-07-31T17:29:19.926Z,31.00
2022-07-31T17:32:43.786Z,31.10
2022-07-31T17:36:08.389Z,31.20
2022-07-31T17:39:31.936Z,31.90
2022-07-31T17:42:56.835Z,31.30
2022-07-31T17:46:28.199Z,31.50
2022-07-31T17:49:59.902Z,31.60
2022-07-31T17:53:23.454Z,31.80
2022-07-31T17:56:54.814Z,31.90
2022-07-31T18:00:20.100Z,31.90
2022-07-31T18:03:43.639Z,31.90
2022-07-31T18:07:09.027Z,31.90
2022-07-31T18:10:53.656Z,32.00
2022-07-31T18:14:18.201Z,32.10
2022-07-31T18:17:45.758Z,32.10
2022-07-31T18:21:09.345Z,32.20
2022-07-31T18:24:32.834Z,32.30
2022-07-31T18:27:57.132Z,32.40
2022-07-31T18:31:34.671Z,32.50
2022-07-31T18:35:02.367Z,32.70
2022-07-31T18:38:28.203Z,32.80
2022-07-31T18:41:52.025Z,32.80
2022-07-31T18:45:15.502Z,32.90
2022-07-31T18:48:39.387Z,33.00
2022-07-31T18:52:04.965Z,33.00
2022-07-31T18:55:28.666Z,33.10
2022-07-31T18:58:53.218Z,33.10
2022-07-31T19:02:16.827Z,33.40
2022-07-31T19:05:46.224Z,33.40
2022-07-31T19:09:11.350Z,33.50
2022-07-31T19:12:35.291Z,33.70
2022-07-31T19:15:58.846Z,33.70
2022-07-31T19:19:22.321Z,33.90
2022-07-31T19:22:46.431Z,33.80
2022-07-31T19:26:11.382Z,33.80
2022-07-31T19:29:34.880Z,33.70
2022-07-31T19:32:58.419Z,34.40
2022-07-31T19:36:21.966Z,33.80
2022-07-31T19:39:45.628Z,33.70
2022-07-31T19:43:11.619Z,33.90
2022-07-31T19:46:36.806Z,34.10
2022-07-31T19:50:00.278Z,34.20
2022-07-31T19:53:23.773Z,34.40
2022-07-31T19:56:47.301Z,34.40
2022-07-31T20:00:14.548Z,34.60
2022-07-31T20:03:38.553Z,34.90
2022-07-31T20:07:02.045Z,34.80
2022-07-31T20:10:25.629Z,35.00
2022-07-31T20:13:49.140Z,35.00
2022-07-31T20:17:14.099Z,35.20
2022-07-31T20:20:39.071Z,35.30
2022-07-31T20:24:02.864Z,35.30
2022-07-31T20:27:26.620Z,35.40
2022-07-31T20:30:50.705Z,35.50
2022-07-31T20:34:16.297Z,35.50
2022-07-31T20:37:40.607Z,35.50
2022-07-31T20:41:04.472Z,35.60
2022-07-31T20:44:28.147Z,35.70
2022-07-31T20:47:53.033Z,35.60
2022-07-31T20:51:20.439Z,35.70
2022-07-31T20:54:44.523Z,35.70
2022-07-31T20:58:07.945Z,35.80
2022-07-31T21:01:31.445Z,35.90
2022-07-31T21:04:54.992Z,35.90
2022-07-31T21:08:19.935Z,35.90
2022-07-31T21:11:43.446Z,36.00
2022-07-31T21:15:08.197Z,36.00
2022-07-31T21:18:51.723Z,36.00
2022-07-31T21:22:15.223Z,36.00
2022-07-31T21:25:42.495Z,36.00
2022-07-31T21:29:09.049Z,36.10
2022-07-31T21:32:33.607Z,36.20
2022-07-31T21:35:57.731Z,36.20
2022-07-31T21:39:25.567Z,36.20
2022-07-31T21:42:56.468Z,36.30
2022-07-31T21:46:25.304Z,36.30
2022-07-31T21:49:55.272Z,36.50
2022-07-31T21:53:21.804Z,36.50
2022-07-31T21:56:45.405Z,36.40
2022-07-31T22:00:13.935Z,36.50
2022-07-31T22:03:37.767Z,36.70
2022-07-31T22:07:18.898Z,36.70
2022-07-31T22:10:42.719Z,36.90
2022-07-31T22:14:06.435Z,36.90
2022-07-31T22:17:31.333Z,37.00
2022-07-31T22:20:55.273Z,37.20
2022-07-31T22:24:20.021Z,37.20
2022-07-31T22:27:55.407Z,37.30
2022-07-31T22:31:19.470Z,37.30
2022-07-31T22:34:44.623Z,37.40
2022-07-31T22:38:08.375Z,37.60
2022-07-31T22:41:31.979Z,37.70
2022-07-31T22:44:55.974Z,37.80
2022-07-31T22:48:21.842Z,37.90
2022-07-31T22:51:46.911Z,38.00
2022-07-31T22:55:12.018Z,38.20
2022-07-31T22:58:35.528Z,38.20
2022-07-31T23:09:13.306Z,37.80
2022-07-31T23:12:36.791Z,37.90
2022-07-31T23:16:00.347Z,38.00
2022-07-31T23:19:24.554Z,38.40
2022-07-31T23:22:48.035Z,38.90
2022-07-31T23:26:12.857Z,38.50
2022-07-31T23:29:41.596Z,38.50
2022-07-31T23:33:05.481Z,38.90
2022-07-31T23:43:21.037Z,39.10
2022-07-31T23:46:44.645Z,39.70
2022-07-31T23:50:09.041Z,39.40
